Time;durP1;ratioP1;P1;durP2;ratioP2;P2;SDS_P1;SDS_P2;PMS_P1;PMS_P2;Temp;Humidity;BMP_temperature;BMP_pressure;BME280_temperature;BME280_humidity;BME280_pressure;Samples;Min_cycle;Max_cycle;Signal;HPM_P1;HPM_P2
2021/04/05 00:00:18;;;;;;;3.35;1.80;;;2.90;85.00;;;;;;4379172;32;20139;-58
2021/04/05 00:02:45;;;;;;;2.37;1.92;;;2.80;86.20;;;;;;4366934;32;20074;-58
2021/04/05 00:05:19;;;;;;;3.55;2.05;;;2.80;86.90;;;;;;4342001;32;20082;-58
2021/04/05 00:07:47;;;;;;;2.80;1.90;;;2.80;86.60;;;;;;4367047;32;20081;-58
2021/04/05 00:10:28;;;;;;;3.87;2.10;;;2.70;87.60;;;;;;4366604;32;20085;-60
2021/04/05 00:12:55;;;;;;;3.10;2.17;;;2.60;89.10;;;;;;4364948;32;20055;-58
2021/04/05 00:15:22;;;;;;;3.47;2.00;;;2.70;88.00;;;;;;4378740;32;20065;-58
2021/04/05 00:17:48;;;;;;;3.65;1.90;;;2.70;87.80;;;;;;4378629;32;20058;-58
2021/04/05 00:20:27;;;;;;;2.00;1.65;;;2.70;88.20;;;;;;4366735;32;20077;-57
2021/04/05 00:22:53;;;;;;;2.58;1.77;;;2.60;89.40;;;;;;4391121;32;20084;-58
2021/04/05 00:25:19;;;;;;;3.10;1.90;;;2.80;87.60;;;;;;4366250;32;20070;-58
2021/04/05 00:27:45;;;;;;;2.22;1.80;;;2.80;88.10;;;;;;4363824;32;20078;-57
2021/04/05 00:30:21;;;;;;;2.25;1.67;;;2.70;90.00;;;;;;4366478;32;20129;-59
2021/04/05 00:32:47;;;;;;;6.22;1.90;;;2.70;89.00;;;;;;4391130;32;20066;-58
2021/04/05 00:35:23;;;;;;;3.60;1.90;;;2.70;90.40;;;;;;4390737;32;20162;-58
2021/04/05 00:37:49;;;;;;;2.03;1.70;;;2.60;91.70;;;;;;4378904;32;20161;-58
2021/04/05 00:40:25;;;;;;;2.62;1.90;;;2.60;91.70;;;;;;4378399;32;20109;-59
2021/04/05 00:42:51;;;;;;;2.22;1.77;;;2.80;89.90;;;;;;4391986;32;20065;-59
2021/04/05 00:45:18;;;;;;;3.30;2.08;;;2.70;89.40;;;;;;4378734;32;20190;-59
2021/04/05 00:47:49;;;;;;;3.25;1.95;;;2.70;89.10;;;;;;4365599;32;20073;-59
2021/04/05 00:50:28;;;;;;;3.25;2.30;;;2.60;89.90;;;;;;4378521;32;20090;-58
2021/04/05 00:52:56;;;;;;;6.32;2.00;;;2.70;90.10;;;;;;4390837;32;20134;-57
2021/04/05 00:55:23;;;;;;;2.65;1.85;;;2.60;90.30;;;;;;4378850;32;20074;-59
2021/04/05 00:57:49;;;;;;;2.08;1.80;;;2.50;90.80;;;;;;4365419;32;20495;-58
2021/04/05 01:00:41;;;;;;;3.90;1.83;;;2.40;91.00;;;;;;4353003;32;20448;-58
2021/04/05 01:03:10;;;;;;;3.58;2.03;;;2.30;91.90;;;;;;4392506;32;20074;-59
2021/04/05 01:05:37;;;;;;;3.05;1.90;;;2.40;91.80;;;;;;4378371;32;20070;-59
2021/04/05 01:08:04;;;;;;;3.03;2.15;;;2.40;91.70;;;;;;4390715;32;20069;-58
2021/04/05 01:10:30;;;;;;;2.20;1.73;;;2.30;92.90;;;;;;4353598;32;20090;-57
2021/04/05 01:12:56;;;;;;;3.62;2.25;;;2.20;94.10;;;;;;4389489;32;20487;-58
2021/04/05 01:15:22;;;;;;;2.17;1.73;;;2.10;96.60;;;;;;4350914;32;20126;-58
2021/04/05 01:17:49;;;;;;;1.92;1.62;;;2.10;97.60;;;;;;4375809;32;20092;-58
2021/04/05 01:20:16;;;;;;;3.28;1.77;;;2.10;96.50;;;;;;4375145;32;20090;-57
2021/04/05 01:22:46;;;;;;;2.80;2.10;;;2.10;97.30;;;;;;4363184;32;20433;-59
2021/04/05 01:25:15;;;;;;;3.42;1.87;;;2.10;97.50;;;;;;4362935;32;20504;-57
2021/04/05 01:27:42;;;;;;;2.35;1.90;;;1.90;99.50;;;;;;4338783;32;20093;-57
2021/04/05 01:30:28;;;;;;;3.35;2.00;;;2.20;99.90;;;;;;4344526;32;20459;-58
2021/04/05 01:33:12;;;;;;;2.67;1.83;;;2.20;98.90;;;;;;4390179;32;20103;-58
2021/04/05 01:35:46;;;;;;;2.78;2.08;;;2.10;97.60;;;;;;4365463;32;20421;-59
2021/04/05 01:38:13;;;;;;;2.25;1.80;;;2.10;97.20;;;;;;4378525;32;20569;-58
2021/04/05 01:40:46;;;;;;;2.30;1.90;;;2.10;96.70;;;;;;4377742;32;20070;-58
2021/04/05 01:43:12;;;;;;;3.28;1.95;;;1.90;98.60;;;;;;4371199;32;20078;-59
2021/04/05 01:45:39;;;;;;;3.90;2.20;;;2.00;98.00;;;;;;4350387;32;20500;-59
2021/04/05 01:48:07;;;;;;;4.25;1.83;;;2.00;97.30;;;;;;4362485;32;20066;-57
2021/04/05 01:50:33;;;;;;;2.90;2.03;;;2.00;97.00;;;;;;4376609;32;20073;-59
2021/04/05 01:53:04;;;;;;;2.00;1.80;;;2.00;97.50;;;;;;4338824;32;20177;-58
2021/04/05 01:55:32;;;;;;;3.00;2.10;;;2.00;98.00;;;;;;4374950;32;20089;-57
2021/04/05 01:57:59;;;;;;;4.03;2.37;;;2.00;98.10;;;;;;4354959;32;20077;-57
2021/04/05 02:00:30;;;;;;;3.25;2.20;;;2.00;97.90;;;;;;4364898;32;20070;-58
2021/04/05 02:02:57;;;;;;;3.87;2.20;;;1.80;99.90;;;;;;4365289;32;20593;-58
2021/04/05 02:05:24;;;;;;;3.72;2.45;;;1.80;99.90;;;;;;4378046;32;20154;-58
2021/04/05 02:07:50;;;;;;;4.05;1.98;;;1.80;99.90;;;;;;4353093;32;20166;-58
2021/04/05 02:10:24;;;;;;;4.35;2.28;;;1.90;99.90;;;;;;4365292;32;20452;-59
2021/04/05 02:12:52;;;;;;;2.58;1.92;;;1.90;99.90;;;;;;4378044;32;20074;-58
2021/04/05 02:15:18;;;;;;;2.85;2.12;;;1.70;99.90;;;;;;4374927;32;20081;-58
2021/04/05 02:17:46;;;;;;;4.72;2.05;;;1.80;99.90;;;;;;4374600;32;20073;-58
2021/04/05 02:20:15;;;;;;;4.32;2.30;;;1.70;99.90;;;;;;4374449;32;20090;-58
2021/04/05 02:22:52;;;;;;;4.22;2.20;;;1.60;99.90;;;;;;4374666;32;20066;-58
2021/04/05 02:25:20;;;;;;;5.90;2.40;;;1.60;99.90;;;;;;4374651;32;20150;-58
2021/04/05 02:27:47;;;;;;;3.37;2.10;;;1.60;99.90;;;;;;4374416;32;20505;-58
2021/04/05 02:30:24;;;;;;;3.03;1.98;;;1.60;99.90;;;;;;4357297;32;20058;-57
2021/04/05 02:33:04;;;;;;;4.87;2.20;;;1.70;99.90;;;;;;4389907;32;20066;-59
2021/04/05 02:35:33;;;;;;;4.50;2.03;;;1.70;99.90;;;;;;4389825;32;20073;-58
2021/04/05 02:38:02;;;;;;;3.87;1.95;;;1.60;99.90;;;;;;4389742;32;20085;-60
2021/04/05 02:40:28;;;;;;;3.20;2.20;;;1.60;99.90;;;;;;4377427;32;20460;-59
2021/04/05 02:42:56;;;;;;;3.92;2.10;;;1.70;99.90;;;;;;4390490;32;20070;-58
2021/04/05 02:45:24;;;;;;;3.40;2.10;;;1.70;99.90;;;;;;4380377;32;20158;-58
2021/04/05 02:47:54;;;;;;;3.83;2.30;;;1.80;99.90;;;;;;4380285;32;20080;-58
2021/04/05 02:50:22;;;;;;;3.50;1.87;;;1.70;99.90;;;;;;4343109;32;20147;-58
2021/04/05 02:52:48;;;;;;;3.60;2.08;;;1.70;99.90;;;;;;4367608;32;20061;-58
2021/04/05 02:55:15;;;;;;;4.53;2.30;;;1.80;99.90;;;;;;4367724;32;20150;-59
2021/04/05 02:57:43;;;;;;;5.40;2.00;;;1.80;99.90;;;;;;4367379;32;20162;-58
2021/04/05 03:00:14;;;;;;;3.25;2.08;;;1.80;99.90;;;;;;4380035;32;20184;-59
2021/04/05 03:02:46;;;;;;;5.55;2.08;;;1.90;99.90;;;;;;4392487;32;20066;-58
2021/04/05 03:05:13;;;;;;;6.50;2.40;;;1.90;99.90;;;;;;4392020;32;20081;-58
2021/04/05 03:07:39;;;;;;;4.72;2.30;;;2.00;99.90;;;;;;4380249;32;20081;-58
2021/04/05 03:10:10;;;;;;;5.90;2.37;;;1.90;99.90;;;;;;4380363;32;20171;-59
2021/04/05 03:12:38;;;;;;;3.05;2.30;;;2.00;99.90;;;;;;4377351;32;20433;-58
2021/04/05 03:15:07;;;;;;;3.70;2.47;;;2.00;99.90;;;;;;4353982;32;20074;-58
2021/04/05 03:17:34;;;;;;;3.75;1.98;;;2.10;99.90;;;;;;4380595;32;20144;-58
2021/04/05 03:20:00;;;;;;;4.68;2.30;;;2.10;99.90;;;;;;4367817;32;20507;-58
2021/04/05 03:22:26;;;;;;;5.80;2.20;;;2.10;99.90;;;;;;4380850;32;20074;-58
2021/04/05 03:24:52;;;;;;;7.05;2.35;;;2.20;99.90;;;;;;4356805;32;20181;-58
2021/04/05 03:27:18;;;;;;;5.70;2.70;;;2.20;99.90;;;;;;4392342;32;20066;-58
2021/04/05 03:29:46;;;;;;;4.03;2.40;;;2.20;99.90;;;;;;4381386;32;20088;-58
2021/04/05 03:32:16;;;;;;;6.35;2.75;;;2.20;99.90;;;;;;4392172;32;20108;-60
2021/04/05 03:34:48;;;;;;;3.45;2.03;;;2.30;99.90;;;;;;4379618;32;20154;-59
2021/04/05 03:37:17;;;;;;;8.82;2.42;;;2.30;99.90;;;;;;4368229;32;20455;-58
2021/04/05 03:39:43;;;;;;;7.95;2.80;;;2.40;99.90;;;;;;4379240;32;20070;-59
2021/04/05 03:42:34;;;;;;;5.75;2.20;;;2.40;99.90;;;;;;4379346;32;20139;-58
2021/04/05 03:45:27;;;;;;;3.72;2.30;;;2.40;99.90;;;;;;4381641;32;20120;-57
2021/04/05 03:48:33;;;;;;;3.95;2.10;;;2.40;99.90;;;;;;4390292;32;20106;-59
2021/04/05 03:51:27;;;;;;;7.03;2.47;;;2.40;99.90;;;;;;4389498;32;20158;-57
2021/04/05 03:54:01;;;;;;;7.72;2.60;;;2.40;99.90;;;;;;4379476;32;20061;-57
2021/04/05 03:56:44;;;;;;;4.15;2.50;;;2.40;99.90;;;;;;4380036;32;20598;-58
2021/04/05 03:59:35;;;;;;;6.65;2.53;;;2.40;99.90;;;;;;4351865;32;20059;-58
2021/04/05 04:02:11;;;;;;;5.15;2.50;;;2.40;99.90;;;;;;4376760;32;20070;-57
2021/04/05 04:04:49;;;;;;;3.50;2.05;;;2.50;99.90;;;;;;4364025;32;20078;-58
2021/04/05 04:07:24;;;;;;;4.95;2.40;;;2.50;99.90;;;;;;4365755;32;20090;-59
2021/04/05 04:09:52;;;;;;;7.28;2.53;;;2.60;99.90;;;;;;4376430;32;20083;-59
2021/04/05 04:12:18;;;;;;;5.43;2.40;;;2.70;99.90;;;;;;4351381;32;20070;-57
2021/04/05 04:14:44;;;;;;;9.38;3.75;;;2.70;99.90;;;;;;4363496;32;20066;-58
2021/04/05 04:17:10;;;;;;;6.03;2.50;;;2.80;99.90;;;;;;4391237;32;20161;-57
2021/04/05 04:19:37;;;;;;;7.53;2.37;;;2.80;99.90;;;;;;4354084;32;20069;-57
2021/04/05 04:22:05;;;;;;;6.40;2.45;;;2.80;99.90;;;;;;4378594;32;20096;-59
2021/04/05 04:24:35;;;;;;;6.22;2.55;;;2.80;99.90;;;;;;4379284;32;20094;-58
2021/04/05 04:27:02;;;;;;;6.22;2.85;;;3.00;97.30;;;;;;4354681;32;20072;-57
2021/04/05 04:29:29;;;;;;;6.28;2.80;;;3.10;96.30;;;;;;4366791;32;20158;-57
2021/04/05 04:31:55;;;;;;;7.15;2.80;;;3.20;95.80;;;;;;4391279;32;20100;-58
2021/04/05 04:34:23;;;;;;;5.03;2.83;;;3.10;96.00;;;;;;4391256;32;20247;-59
2021/04/05 04:36:49;;;;;;;12.80;3.45;;;3.10;95.80;;;;;;4378543;32;20088;-59
2021/04/05 04:39:17;;;;;;;10.70;2.85;;;3.10;96.20;;;;;;4391604;32;20080;-59
2021/04/05 04:41:45;;;;;;;5.80;2.78;;;3.00;97.10;;;;;;4390909;32;20156;-59
2021/04/05 04:44:12;;;;;;;8.10;2.65;;;3.10;96.00;;;;;;4378340;32;20082;-58
2021/04/05 04:46:38;;;;;;;5.55;2.72;;;3.20;95.60;;;;;;4378679;32;20110;-58
2021/04/05 04:49:10;;;;;;;4.78;2.12;;;3.20;94.60;;;;;;4365936;32;20070;-57
2021/04/05 04:51:36;;;;;;;5.00;2.03;;;3.40;93.90;;;;;;4354357;32;20081;-59
2021/04/05 04:54:05;;;;;;;6.50;2.50;;;3.30;93.80;;;;;;4391213;32;20054;-59
2021/04/05 04:56:32;;;;;;;5.80;2.35;;;3.30;94.00;;;;;;4366292;32;20094;-58
2021/04/05 04:59:09;;;;;;;6.55;2.28;;;3.60;93.00;;;;;;4375075;32;20081;-59
2021/04/05 05:01:43;;;;;;;5.07;2.05;;;5.60;82.00;;;;;;4375437;32;20062;-58
2021/04/05 05:04:23;;;;;;;4.12;2.28;;;5.90;78.10;;;;;;4376204;32;20145;-59
2021/04/05 05:06:49;;;;;;;5.07;2.55;;;6.20;76.10;;;;;;4374731;32;20078;-59
2021/04/05 05:09:15;;;;;;;6.30;2.55;;;6.40;75.80;;;;;;4363398;32;20448;-59
2021/04/05 05:11:41;;;;;;;4.62;2.08;;;6.30;75.00;;;;;;4363705;32;20073;-60
2021/04/05 05:14:08;;;;;;;6.25;2.35;;;6.50;72.10;;;;;;4379310;32;20088;-59
2021/04/05 05:16:35;;;;;;;3.62;2.25;;;6.80;71.60;;;;;;4338229;32;20167;-59
2021/04/05 05:19:02;;;;;;;3.75;2.00;;;7.30;68.40;;;;;;4363234;32;20072;-59
2021/04/05 05:21:51;;;;;;;6.22;2.90;;;6.80;69.90;;;;;;4362903;32;20501;-58
2021/04/05 05:24:22;;;;;;;4.90;2.40;;;7.40;68.50;;;;;;4362588;32;20070;-59
2021/04/05 05:26:49;;;;;;;6.35;2.70;;;7.50;67.60;;;;;;4363127;32;20081;-57
2021/04/05 05:29:18;;;;;;;12.00;2.30;;;6.90;68.20;;;;;;4376431;32;20501;-59
2021/04/05 05:31:45;;;;;;;7.30;2.55;;;6.70;70.50;;;;;;4378349;32;20069;-59
2021/04/05 05:34:13;;;;;;;7.75;2.87;;;6.70;69.70;;;;;;4390661;32;20518;-58
2021/04/05 05:36:43;;;;;;;7.07;2.50;;;7.60;65.40;;;;;;4378001;32;20172;-58
2021/04/05 05:39:11;;;;;;;3.03;2.00;;;7.60;65.20;;;;;;4377568;32;20425;-58
2021/04/05 05:42:16;;;;;;;5.97;2.60;;;7.90;65.00;;;;;;4363854;32;20517;-59
2021/04/05 05:44:42;;;;;;;4.30;2.08;;;7.30;65.00;;;;;;4389961;32;20153;-58
2021/04/05 05:47:27;;;;;;;5.47;2.40;;;7.50;65.20;;;;;;4389342;32;20158;-58
2021/04/05 05:50:31;;;;;;;5.57;2.12;;;7.30;65.00;;;;;;4390030;32;20062;-57
2021/04/05 05:53:13;;;;;;;5.47;2.53;;;7.20;66.40;;;;;;4360922;32;20069;-60
2021/04/05 05:56:16;;;;;;;3.65;2.22;;;6.80;68.10;;;;;;4388130;32;20529;-59
2021/04/05 05:59:06;;;;;;;4.40;3.00;;;7.20;66.10;;;;;;4385345;32;20070;-59
2021/04/05 06:01:36;;;;;;;4.20;2.58;;;7.00;66.00;;;;;;4375575;32;20238;-57
2021/04/05 06:04:59;;;;;;;5.82;2.72;;;7.40;64.00;;;;;;4397838;32;20154;-57
2021/04/05 06:08:49;;;;;;;4.50;2.12;;;7.20;64.80;;;;;;4377660;32;20108;-57
2021/04/05 06:11:59;;;;;;;5.97;2.03;;;7.60;63.30;;;;;;4361330;32;20081;-57
2021/04/05 06:14:48;;;;;;;3.83;1.92;;;8.00;61.20;;;;;;4374455;32;20068;-59
2021/04/05 06:17:32;;;;;;;8.38;2.30;;;7.50;62.80;;;;;;4364488;32;20074;-58
2021/04/05 06:20:44;;;;;;;6.28;2.70;;;7.40;64.50;;;;;;4388282;32;20134;-58
2021/04/05 06:23:36;;;;;;;5.37;2.60;;;6.20;71.10;;;;;;4369800;32;20070;-59
2021/04/05 06:26:41;;;;;;;5.68;2.25;;;6.10;71.50;;;;;;4365506;32;20153;-58
2021/04/05 06:29:40;;;;;;;6.28;2.60;;;6.20;71.50;;;;;;4363497;32;20077;-58
2021/04/05 06:32:31;;;;;;;7.15;2.67;;;6.20;71.60;;;;;;4387243;32;20077;-59
2021/04/05 06:35:35;;;;;;;6.75;2.37;;;6.40;71.40;;;;;;4380605;32;20065;-58
2021/04/05 06:38:03;;;;;;;5.57;2.72;;;6.40;71.30;;;;;;4376585;32;20089;-59
2021/04/05 06:40:31;;;;;;;6.28;2.70;;;6.10;69.40;;;;;;4351781;32;20074;-59
2021/04/05 06:43:28;;;;;;;5.57;2.70;;;6.30;70.20;;;;;;4375667;32;20070;-58
2021/04/05 06:46:31;;;;;;;5.50;2.25;;;6.00;71.10;;;;;;4384765;32;20133;-57
2021/04/05 06:49:17;;;;;;;4.95;2.67;;;6.30;70.70;;;;;;4351308;32;20081;-60
2021/04/05 06:52:40;;;;;;;5.15;2.50;;;6.40;69.00;;;;;;4374664;32;20131;-59
2021/04/05 06:55:46;;;;;;;6.72;2.50;;;6.10;70.70;;;;;;4376564;32;20078;-57
2021/04/05 06:58:23;;;;;;;3.80;2.53;;;6.30;70.10;;;;;;4383227;32;20108;-58
2021/04/05 07:01:27;;;;;;;4.40;2.12;;;6.20;70.70;;;;;;4388478;32;20078;-58
2021/04/05 07:04:13;;;;;;;5.90;2.28;;;6.50;70.20;;;;;;4388740;32;20150;-57
2021/04/05 07:07:11;;;;;;;5.25;2.70;;;6.50;68.00;;;;;;4358590;32;20074;-58
2021/04/05 07:10:11;;;;;;;4.97;2.92;;;6.20;69.50;;;;;;4395409;32;20063;-57
2021/04/05 07:13:05;;;;;;;6.62;3.10;;;6.40;69.50;;;;;;4389681;32;20145;-57
2021/04/05 07:15:48;;;;;;;4.68;2.58;;;6.30;70.90;;;;;;4364015;32;20065;-58
2021/04/05 07:18:58;;;;;;;7.40;2.75;;;6.20;70.10;;;;;;4351151;32;20066;-59
2021/04/05 07:21:59;;;;;;;6.72;2.75;;;6.50;72.30;;;;;;4364281;32;20604;-59
2021/04/05 07:24:49;;;;;;;5.68;3.00;;;6.60;69.90;;;;;;4357904;32;20082;-59
2021/04/05 07:27:42;;;;;;;5.55;2.60;;;6.50;70.00;;;;;;4380550;32;20117;-63
2021/04/05 07:30:18;;;;;;;8.63;2.65;;;7.00;68.50;;;;;;4380889;32;20093;-60
2021/04/05 07:33:26;;;;;;;9.43;2.85;;;7.40;66.70;;;;;;4350700;32;20075;-63
2021/04/05 07:36:35;;;;;;;4.55;2.58;;;7.40;66.60;;;;;;4380110;32;20078;-62
2021/04/05 07:39:21;;;;;;;7.57;2.50;;;7.00;67.10;;;;;;4359424;32;20084;-60
2021/04/05 07:41:58;;;;;;;5.70;2.95;;;7.40;67.50;;;;;;4376523;32;20460;-59
2021/04/05 07:45:11;;;;;;;6.25;3.22;;;7.40;66.70;;;;;;4363975;32;20070;-58
2021/04/05 07:47:49;;;;;;;3.90;2.37;;;7.60;66.10;;;;;;4378816;32;20134;-57
2021/04/05 07:50:40;;;;;;;6.20;2.72;;;7.40;68.60;;;;;;4365224;32;20078;-56
2021/04/05 07:53:21;;;;;;;5.65;2.30;;;7.40;67.00;;;;;;4388014;32;20496;-58
2021/04/05 07:55:48;;;;;;;6.07;2.60;;;7.50;66.10;;;;;;4358868;32;20194;-57
2021/04/05 07:59:01;;;;;;;5.03;2.65;;;7.80;66.10;;;;;;4359820;32;20058;-56
2021/04/05 08:01:42;;;;;;;3.08;2.15;;;7.70;64.50;;;;;;4386411;32;20093;-57
2021/04/05 08:04:22;;;;;;;4.35;2.40;;;7.60;64.00;;;;;;4380044;32;20460;-59
2021/04/05 08:07:02;;;;;;;4.25;2.33;;;7.50;64.30;;;;;;4372045;32;20206;-56
2021/04/05 08:10:16;;;;;;;3.28;2.30;;;8.00;63.60;;;;;;4378513;32;20081;-58
2021/04/05 08:12:53;;;;;;;5.72;2.28;;;7.80;64.60;;;;;;4362940;32;20069;-57
2021/04/05 08:15:42;;;;;;;4.03;2.17;;;7.70;63.70;;;;;;4384661;32;20145;-56
2021/04/05 08:18:30;;;;;;;3.47;2.37;;;7.70;63.40;;;;;;4367246;32;20101;-57
2021/04/05 08:21:15;;;;;;;3.85;2.20;;;8.00;63.50;;;;;;4382226;32;20097;-60
2021/04/05 08:24:05;;;;;;;4.80;2.37;;;7.90;62.20;;;;;;4372702;32;20081;-59
2021/04/05 08:27:26;;;;;;;4.97;1.77;;;7.70;61.90;;;;;;4380593;32;20531;-57
2021/04/05 08:30:21;;;;;;;5.53;2.17;;;8.00;60.10;;;;;;4380904;32;20094;-59
2021/04/05 08:33:32;;;;;;;3.58;2.10;;;8.60;60.50;;;;;;4376419;32;20157;-57
2021/04/05 08:36:14;;;;;;;6.93;2.22;;;7.90;59.30;;;;;;4377676;32;20524;-57
2021/04/05 08:39:08;;;;;;;6.57;2.40;;;8.50;59.10;;;;;;4376556;32;20102;-57
2021/04/05 08:42:12;;;;;;;8.10;2.60;;;8.50;59.40;;;;;;4387537;32;20481;-58
2021/04/05 08:44:51;;;;;;;8.38;2.33;;;8.30;59.30;;;;;;4372921;32;20069;-58
2021/04/05 08:47:23;;;;;;;3.62;2.58;;;8.30;58.60;;;;;;4374623;32;20153;-59
2021/04/05 08:49:49;;;;;;;5.07;2.47;;;8.10;60.10;;;;;;4377274;32;20096;-59
2021/04/05 08:52:20;;;;;;;7.55;2.35;;;8.20;61.00;;;;;;4366253;32;20219;-61
2021/04/05 08:54:46;;;;;;;6.65;2.55;;;8.30;60.30;;;;;;4349433;32;20073;-59
2021/04/05 08:57:29;;;;;;;3.75;2.10;;;8.30;58.70;;;;;;4351150;32;20076;-59
2021/04/05 09:00:10;;;;;;;6.68;2.50;;;8.10;58.90;;;;;;4363838;32;20582;-60
2021/04/05 09:02:53;;;;;;;7.05;2.53;;;8.30;58.70;;;;;;4385535;32;20074;-57
2021/04/05 09:05:22;;;;;;;5.30;2.28;;;8.90;58.40;;;;;;4370575;32;20069;-58
2021/04/05 09:08:09;;;;;;;5.40;2.22;;;8.50;57.70;;;;;;4375568;32;20062;-58
2021/04/05 09:10:52;;;;;;;3.90;2.40;;;8.30;57.00;;;;;;4378321;32;20089;-60
2021/04/05 09:13:45;;;;;;;5.85;2.40;;;9.10;56.80;;;;;;4385621;32;20076;-56
2021/04/05 09:16:48;;;;;;;4.03;2.00;;;8.70;56.20;;;;;;4377668;32;20085;-61
2021/04/05 09:20:05;;;;;;;5.75;2.30;;;8.20;57.30;;;;;;4385153;32;20109;-61
2021/04/05 09:23:08;;;;;;;7.43;2.20;;;8.30;56.70;;;;;;4374566;32;20470;-56
2021/04/05 09:25:51;;;;;;;6.90;2.45;;;8.30;57.80;;;;;;4370549;32;20202;-58
2021/04/05 09:28:57;;;;;;;3.53;1.98;;;8.60;56.70;;;;;;4358700;32;20530;-58
2021/04/05 09:31:23;;;;;;;1.92;1.50;;;8.20;56.30;;;;;;4362957;32;20096;-60
2021/04/05 09:34:34;;;;;;;4.70;2.05;;;8.40;56.60;;;;;;4383864;32;20480;-59
2021/04/05 09:37:54;;;;;;;5.20;2.28;;;8.40;56.60;;;;;;4364756;32;20068;-62
2021/04/05 09:41:17;;;;;;;1.90;1.60;;;8.60;55.20;;;;;;4360229;32;20070;-60
2021/04/05 09:44:00;;;;;;;3.78;1.87;;;8.30;55.00;;;;;;4387490;32;20061;-61
2021/04/05 09:46:36;;;;;;;3.40;1.70;;;8.30;54.10;;;;;;4372794;32;20062;-58
2021/04/05 09:49:13;;;;;;;;;;;8.30;54.10;;;;;;4383531;32;20459;-61
2021/04/05 09:52:15;;;;;;;4.18;1.90;;;8.30;54.80;;;;;;4374378;32;20348;-60
2021/04/05 09:54:54;;;;;;;4.25;1.77;;;8.80;54.40;;;;;;4351224;32;20577;-59
2021/04/05 09:57:36;;;;;;;7.60;2.50;;;8.90;52.40;;;;;;4354418;32;20066;-60
2021/04/05 10:00:13;;;;;;;2.62;1.40;;;8.50;51.80;;;;;;4364268;32;20073;-60
2021/04/05 10:02:56;;;;;;;3.10;1.42;;;8.40;52.00;;;;;;4359892;32;20537;-64
2021/04/05 10:05:24;;;;;;;2.67;1.60;;;8.70;51.20;;;;;;4366374;32;20077;-58
2021/04/05 10:07:51;;;;;;;8.15;2.00;;;8.90;50.40;;;;;;4363518;32;20082;-63
2021/04/05 10:10:18;;;;;;;2.03;1.40;;;8.60;51.20;;;;;;4352547;32;20151;-62
2021/04/05 10:12:46;;;;;;;4.10;1.90;;;8.80;50.40;;;;;;4362737;32;20072;-61
2021/04/05 10:15:19;;;;;;;5.78;2.00;;;8.70;50.30;;;;;;4363835;32;20185;-61
2021/04/05 10:18:01;;;;;;;4.68;1.87;;;9.30;50.10;;;;;;4362096;32;20074;-62
2021/04/05 10:20:29;;;;;;;7.28;1.92;;;9.10;49.90;;;;;;4361145;32;20074;-57
2021/04/05 10:22:56;;;;;;;4.87;1.65;;;8.80;50.10;;;;;;4351681;32;20100;-58
2021/04/05 10:25:25;;;;;;;4.55;1.65;;;8.50;51.10;;;;;;4343861;32;20086;-58
2021/04/05 10:27:57;;;;;;;4.25;1.58;;;8.70;51.20;;;;;;4356791;32;20082;-57
2021/04/05 10:30:33;;;;;;;9.73;1.50;;;8.50;51.80;;;;;;4369034;32;20496;-58
2021/04/05 10:33:09;;;;;;;2.33;1.60;;;8.50;51.60;;;;;;4358616;32;20449;-59
2021/04/05 10:35:38;;;;;;;5.00;1.73;;;8.70;51.00;;;;;;4374877;32;20142;-60
2021/04/05 10:38:05;;;;;;;2.40;1.55;;;8.70;50.10;;;;;;4376344;32;20073;-58
2021/04/05 10:40:31;;;;;;;2.62;1.20;;;8.60;50.30;;;;;;4339487;32;20088;-58
2021/04/05 10:43:27;;;;;;;4.93;1.40;;;8.40;50.50;;;;;;4359978;32;20157;-60
2021/04/05 10:46:05;;;;;;;1.87;1.37;;;8.60;50.00;;;;;;4342082;32;20206;-61
2021/04/05 10:48:51;;;;;;;2.58;1.50;;;8.40;49.60;;;;;;4358883;32;20638;-60
2021/04/05 10:51:43;;;;;;;2.25;1.50;;;8.40;49.20;;;;;;4380875;32;20084;-61
2021/04/05 10:54:33;;;;;;;3.40;1.80;;;8.50;48.70;;;;;;4363573;32;20576;-60
2021/04/05 10:57:03;;;;;;;4.50;1.73;;;8.70;48.70;;;;;;4372855;32;20085;-59
2021/04/05 10:59:53;;;;;;;4.82;2.03;;;9.60;46.70;;;;;;4359651;32;20047;-59
2021/04/05 11:02:32;;;;;;;5.75;1.80;;;10.20;45.40;;;;;;4378682;32;20504;-59
2021/04/05 11:05:05;;;;;;;7.10;2.37;;;9.70;44.20;;;;;;4365930;32;20104;-63
2021/04/05 11:07:31;;;;;;;2.10;1.58;;;10.20;43.90;;;;;;4361880;32;20072;-62
2021/04/05 11:09:59;;;;;;;4.43;1.95;;;9.90;43.20;;;;;;4373123;32;20084;-65
2021/04/05 11:12:41;;;;;;;9.63;2.28;;;9.10;45.90;;;;;;4361889;32;20089;-58
2021/04/05 11:15:17;;;;;;;1.87;1.50;;;9.10;46.40;;;;;;4370811;32;20097;-62
2021/04/05 11:17:45;;;;;;;5.22;1.85;;;8.70;46.30;;;;;;4377772;32;20480;-59
2021/04/05 11:20:13;;;;;;;2.72;1.75;;;8.70;46.80;;;;;;4363583;32;20601;-57
2021/04/05 11:22:40;;;;;;;2.67;1.60;;;8.70;47.20;;;;;;4365873;32;20077;-62
2021/04/05 11:25:35;;;;;;;2.47;1.70;;;8.50;47.80;;;;;;4363059;32;20115;-60
2021/04/05 11:28:19;;;;;;;3.20;1.70;;;8.70;48.10;;;;;;4377306;32;20187;-69
2021/04/05 11:30:47;;;;;;;2.50;1.80;;;8.80;48.80;;;;;;4375710;32;20081;-61
2021/04/05 11:33:13;;;;;;;4.60;1.92;;;8.90;49.60;;;;;;4364342;32;20472;-64
2021/04/05 11:35:40;;;;;;;3.25;1.98;;;8.60;49.60;;;;;;4353004;32;20073;-59
2021/04/05 11:38:16;;;;;;;3.58;1.85;;;8.80;50.40;;;;;;4356247;32;20070;-58
2021/04/05 11:40:42;;;;;;;3.55;2.30;;;8.90;50.40;;;;;;4367493;32;20512;-60
2021/04/05 11:43:20;;;;;;;5.95;1.83;;;8.90;50.70;;;;;;4375318;32;20545;-59
2021/04/05 11:45:54;;;;;;;4.68;2.40;;;9.10;49.40;;;;;;4374765;32;20109;-59
2021/04/05 11:48:23;;;;;;;4.97;1.87;;;9.20;48.90;;;;;;4363640;32;20082;-58
2021/04/05 11:50:50;;;;;;;3.08;2.10;;;9.80;47.70;;;;;;4390120;32;20066;-58
2021/04/05 11:53:54;;;;;;;2.20;1.87;;;9.70;47.00;;;;;;4351730;32;20110;-58
2021/04/05 11:56:25;;;;;;;2.58;1.60;;;9.60;47.30;;;;;;4375031;32;20070;-60
2021/04/05 11:59:11;;;;;;;4.50;1.62;;;9.40;47.60;;;;;;4353445;32;20058;-62
2021/04/05 12:01:45;;;;;;;3.83;2.03;;;9.60;47.80;;;;;;4370067;32;20062;-59
2021/04/05 12:04:20;;;;;;;4.57;1.83;;;9.40;46.40;;;;;;4380272;32;20508;-60
2021/04/05 12:06:54;;;;;;;2.70;1.80;;;9.30;47.30;;;;;;4350374;32;20129;-60
2021/04/05 12:09:44;;;;;;;4.25;1.70;;;9.30;47.80;;;;;;4369228;32;20137;-61
2021/04/05 12:12:20;;;;;;;4.53;1.65;;;9.10;49.10;;;;;;4364344;32;20503;-59
2021/04/05 12:14:53;;;;;;;2.17;1.45;;;9.20;48.50;;;;;;4379064;32;20112;-58
2021/04/05 12:17:21;;;;;;;3.03;1.73;;;9.20;49.70;;;;;;4380515;32;20173;-55
2021/04/05 12:19:48;;;;;;;4.45;1.67;;;9.40;49.00;;;;;;4376928;32;20145;-60
2021/04/05 12:22:14;;;;;;;2.80;1.60;;;9.20;49.00;;;;;;4386525;32;20492;-58
2021/04/05 12:24:50;;;;;;;3.00;1.65;;;9.40;49.40;;;;;;4377490;32;20262;-57
2021/04/05 12:27:16;;;;;;;2.30;1.57;;;9.00;50.40;;;;;;4384713;32;20054;-58
2021/04/05 12:29:43;;;;;;;2.47;1.60;;;9.20;49.70;;;;;;4363480;32;20066;-58
2021/04/05 12:32:19;;;;;;;4.80;1.92;;;9.20;50.10;;;;;;4374350;32;20592;-57
2021/04/05 12:34:47;;;;;;;2.75;2.10;;;9.50;49.50;;;;;;4363200;32;20110;-59
2021/04/05 12:37:15;;;;;;;5.40;2.00;;;10.00;48.50;;;;;;4362070;32;20090;-59
2021/04/05 12:39:42;;;;;;;3.33;1.75;;;9.70;48.70;;;;;;4379273;32;20065;-57
2021/04/05 12:42:10;;;;;;;2.50;1.70;;;9.30;50.20;;;;;;4362585;32;20109;-59
2021/04/05 12:44:38;;;;;;;3.67;1.27;;;9.20;50.50;;;;;;4382715;32;20073;-57
2021/04/05 12:47:07;;;;;;;3.72;2.08;;;9.20;50.00;;;;;;4349061;32;20141;-62
2021/04/05 12:49:41;;;;;;;4.05;2.30;;;9.10;50.50;;;;;;4376021;32;20241;-61
2021/04/05 12:52:20;;;;;;;5.95;2.25;;;9.00;50.90;;;;;;4362244;32;20488;-58
2021/04/05 12:54:51;;;;;;;3.35;1.90;;;9.10;51.50;;;;;;4350541;32;20094;-57
2021/04/05 12:57:27;;;;;;;2.83;1.75;;;8.90;51.90;;;;;;4380957;32;20559;-60
2021/04/05 12:59:54;;;;;;;4.53;2.30;;;8.90;52.60;;;;;;4352001;32;20142;-57
2021/04/05 13:02:22;;;;;;;7.10;2.20;;;8.70;53.20;;;;;;4359468;32;20151;-60
2021/04/05 13:05:00;;;;;;;4.40;2.10;;;8.70;53.40;;;;;;4367993;32;20084;-56
2021/04/05 13:07:52;;;;;;;6.43;2.10;;;8.70;53.60;;;;;;4385546;32;20089;-58
2021/04/05 13:10:26;;;;;;;2.65;1.85;;;8.70;53.40;;;;;;4374920;32;20158;-58
2021/04/05 13:12:58;;;;;;;4.32;1.90;;;8.50;53.70;;;;;;4361289;32;20077;-59
2021/04/05 13:15:34;;;;;;;7.10;2.35;;;8.60;53.60;;;;;;4374528;32;20062;-57
2021/04/05 13:18:05;;;;;;;2.90;1.77;;;8.70;53.60;;;;;;4372343;32;20098;-58
2021/04/05 13:20:37;;;;;;;3.83;1.98;;;8.70;53.40;;;;;;4361345;32;20066;-58
2021/04/05 13:23:06;;;;;;;3.10;2.20;;;8.80;53.40;;;;;;4363397;32;20066;-59
2021/04/05 13:25:46;;;;;;;4.62;1.83;;;8.80;53.30;;;;;;4349163;32;20096;-56
2021/04/05 13:28:12;;;;;;;6.65;2.12;;;8.60;53.40;;;;;;4371767;32;20154;-57
2021/04/05 13:30:40;;;;;;;3.15;1.83;;;8.70;53.40;;;;;;4382681;32;20492;-58
2021/04/05 13:33:08;;;;;;;6.62;1.90;;;8.60;53.60;;;;;;4374803;32;20145;-60
2021/04/05 13:35:34;;;;;;;6.12;2.35;;;8.50;54.10;;;;;;4352043;32;20186;-58
2021/04/05 13:38:09;;;;;;;8.77;2.05;;;8.70;54.00;;;;;;4380108;32;20176;-58
2021/04/05 13:40:36;;;;;;;5.05;2.20;;;8.70;53.50;;;;;;4356803;32;20081;-58
2021/04/05 13:43:14;;;;;;;3.50;1.67;;;8.60;54.10;;;;;;4368598;32;20102;-59
2021/04/05 13:45:45;;;;;;;5.85;2.12;;;8.40;54.10;;;;;;4372830;32;20076;-60
2021/04/05 13:48:13;;;;;;;5.65;1.95;;;8.50;54.70;;;;;;4358898;32;20077;-58
2021/04/05 13:50:43;;;;;;;2.95;1.70;;;8.50;54.60;;;;;;4382136;32;20070;-61